Sonic Adventure (DX): Overall Rankings

Records: Times | Rings | Scores | Races | Bosses | Freestyle
Leaders: Times | Rings | Scores | Races | Bosses | Freestyle | Overall
Rank Order Asc Player Percent Points Date
1 Sonicspeedruner 98.1% 315 05-27-17
2 Gamepro011 98.0% 330 05-27-17
3 DarkPolarNight 96.9% 527 05-27-17
4 Jawzun 93.3% 1135 05-27-17
5 Dashjump 91.9% 1382 05-27-17
6 DarkspinesSonic 90.0% 1699 05-27-17
7 Avento128bits 89.8% 1731 05-27-17
8 ike6252 89.7% 1757 05-27-17
9 F-Man 87.8% 2076 05-27-17
10 Coolfansonic 87.3% 2164 05-27-17
11 HyperSonic7701 84.6% 2635 05-27-17
12 TheRealShadnic 84.0% 2735 05-27-17
13 yoshifan 82.9% 2920 05-27-17
14 frankoredstrato 82.5% 2983 05-27-17
15 francisco 81.6% 3142 05-27-17
16 Marth 81.3% 3187 05-27-17
17 InferSaime 80.2% 3387 05-27-17
18 PfoSonic 79.7% 3470 05-27-17
19 Paragod 79.2% 3547 05-27-17
20 THC98 78.4% 3685 05-27-17
21 Stefan 76.1% 4094 05-27-17
22 RPGnutter 73.9% 4461 05-27-17
23 bertin 73.8% 4481 05-27-17
24 sonicam 71.7% 4836 05-27-17
25 xXMegaManXx 70.3% 5081 05-27-17
26 drminus 70.3% 5084 05-27-17
27 Combo 65.9% 5838 05-27-17
28 chainchumper 65.7% 5870 05-27-17
29 SkyLights 64.7% 6040 05-27-17
30 chaos shadow 63.7% 6214 05-27-17
31 Diamond 62.6% 6407 05-27-17
32 Auriman1 60.7% 6727 05-27-17
33 GerbilSoft 60.6% 6736 05-27-17
34 OmegaDJ 60.6% 6738 05-27-17
35 magnum12 59.8% 6885 05-27-17
36 Thorn 57.6% 7254 05-27-17
37 P1 Pause 57.4% 7283 05-27-17
38 mike89 56.3% 7481 05-27-17
39 Groudon199 54.3% 7814 05-27-17
40 Dave Cramer 54.3% 7825 05-27-17
41 Shadow Jacky 53.3% 7992 05-27-17
42 Parax 53.2% 8007 05-27-17
43 Psymar 48.1% 8875 05-27-17
44 Arch 47.4% 8997 05-27-17
45 Chao_Fan 46.5% 9151 05-27-17
46 mauserman 45.4% 9344 05-27-17
46 Quartz 45.4% 9344 05-27-17
48 teamblackarms 44.6% 9483 05-27-17
49 James_Bertolli 43.5% 9674 05-27-17
50 Psyknux 43.5% 9676 05-27-17
51 NintenDan 43.1% 9739 05-27-17
52 Webber3000 42.7% 9815 05-27-17
53 Turbos 42.5% 9843 05-27-17
54 Cream147 42.1% 9916 05-27-17
55 Ring Rush 42.0% 9921 05-27-17
56 videogamemaster777 41.9% 9937 05-27-17
57 Siavash Tazari 41.8% 9964 05-27-17
58 Fr3nZy 41.6% 10005 05-27-17
59 buddychaos0415 41.1% 10077 05-27-17
60 SadisticMystic 40.5% 10189 05-27-17
61 eggFL 39.9% 10283 05-27-17
62 SB737 38.3% 10565 05-27-17
63 supersonic465 37.6% 10687 05-27-17
64 supersonicfan 37.2% 10748 05-27-17
65 FuzZerd 35.9% 10973 05-27-17
66 Aitamen 35.5% 11043 05-27-17
67 elecmouse101 35.1% 11103 05-27-17
68 danieldude 35.0% 11133 05-27-17
69 metanightmare22 33.9% 11313 05-27-17
70 Cyan Ryan 33.8% 11341 05-27-17
71 Austinf 33.6% 11374 05-27-17
72 dabestgamer 33.5% 11378 05-27-17
73 MiStEr_ShAoLiN 33.4% 11408 05-27-17
74 Andrea Ritsu 32.5% 11559 05-27-17
75 BigAL49 32.1% 11620 05-27-17
76 itsPersonnal 31.9% 11665 05-27-17
77 Cybrax 31.2% 11776 05-27-17
78 SilvertheAlmighty 31.2% 11781 05-27-17
79 Nimrod 30.6% 11887 05-27-17
80 VMU Player Banned 29.1% 12135 05-27-17
81 Staf 29.0% 12149 05-27-17
82 ethmar 28.7% 12207 05-27-17
83 Omega Rafael Santos 28.6% 12224 05-27-17
84 The T 28.5% 12233 05-27-17
85 EngiNerd 28.4% 12263 05-27-17
86 lordmetalsonic 27.8% 12354 05-27-17
87 welldooder64 27.2% 12465 05-27-17
88 Hipertails12 27.0% 12494 05-27-17
89 The Great Lord Mick 26.9% 12510 05-27-17
90 GreatStar 26.9% 12517 05-27-17
91 Sondow 26.8% 12525 05-27-17
92 LinksDarkArrows 26.6% 12559 05-27-17
93 Mastakirby 26.5% 12576 05-27-17
94 JamminX42 26.5% 12592 05-27-17
95 Skylace 25.5% 12751 05-27-17
96 a_moustache 24.3% 12962 05-27-17
97 Rolken 24.2% 12983 05-27-17
98 Kogen Player Banned 22.4% 13278 05-27-17
99 Xia 22.4% 13286 05-27-17
100 Spinballwizard 22.4% 13287 05-27-17
101 Twilisailor 22.0% 13360 05-27-17
102 f0rever_zer0 21.9% 13373 05-27-17
103 Cutiefox 21.7% 13405 05-27-17
104 Don 21.4% 13452 05-27-17
105 Game_Complete 21.3% 13470 05-27-17
106 Miles9999 21.2% 13485 05-27-17
107 andres430 21.1% 13511 05-27-17
108 iSonicKid2K 20.7% 13569 05-27-17
109 Cruizer 20.7% 13570 05-27-17
110 SADXTryHard 20.3% 13646 05-27-17
111 GarnetPrincess 20.0% 13698 05-27-17
112 AxlThunder 19.0% 13866 05-27-17
113 knuckles_sonic8 18.7% 13918 05-27-17
114 The Knuckles Chao 18.5% 13962 05-27-17
115 KinkyCadence 18.3% 13986 05-27-17
116 Team_Yoshi 18.0% 14044 05-27-17
117 Termon 17.9% 14056 05-27-17
118 LittleBigness 17.8% 14067 05-27-17
119 FoxBoy 17.8% 14080 05-27-17
120 SonicWinDX 17.6% 14101 05-27-17
121 Drakodan 16.9% 14236 05-27-17
122 Sonic Singularity 16.1% 14360 05-27-17
123 Pokemonmaster888 15.8% 14418 05-27-17
124 MPit08 14.7% 14598 05-27-17
125 SilverSonic 14.7% 14607 05-27-17
126 WeegeeZV 14.3% 14673 05-27-17
127 koinu93 14.3% 14674 05-27-17
128 Mo Player Banned 14.1% 14703 05-27-17
129 HyperSonic64 13.9% 14742 05-27-17
130 booo95 13.8% 14764 05-27-17
131 Cod4Scopes 13.7% 14782 05-27-17
132 Chawkk 13.5% 14812 05-27-17
133 paulie9990 13.5% 14813 05-27-17
134 Jerzia 13.5% 14817 05-27-17
135 SuperSonic101 13.2% 14859 05-27-17
136 N 13.2% 14865 05-27-17
137 Maxinfamily 13.1% 14878 05-27-17
138 Hunters13 13.0% 14890 05-27-17
139 LilZero 12.8% 14929 05-27-17
140 Kanimayo_Jp 12.7% 14955 05-27-17
141 BrokenArthritis 12.5% 14981 05-27-17
142 PsyBorg 12.4% 14993 05-27-17
143 Flying Fox 12.3% 15008 05-27-17
144 sonicspeed 12.1% 15049 05-27-17
145 Therio 12.0% 15065 05-27-17
146 douglas 12.0% 15069 05-27-17
147 Matt_TY 11.6% 15128 05-27-17
148 thewaytodawnnn 11.4% 15165 05-27-17
149 Cooljay 11.1% 15227 05-27-17
150 SeaWolf 10.8% 15278 05-27-17
151 SuperBlitzCraig 10.7% 15287 05-27-17
152 joecoolgames 10.7% 15293 05-27-17
153 videogamer1014 10.6% 15304 05-27-17
154 AC-Tygo 10.4% 15338 05-27-17
155 welshmoose05 10.3% 15353 05-27-17
156 OddCook 10.2% 15381 05-27-17
157 crazy1993 10.0% 15403 05-27-17
158 TFEC Headshot 9.9% 15421 05-27-17
159 Mcshuggets 9.7% 15460 05-27-17
160 niscool 9.6% 15478 05-27-17
161 imazor017 9.3% 15530 05-27-17
162 nuckrieg 9.3% 15534 05-27-17
163 SonicAD 9.3% 15535 05-27-17
164 Shadowthegreat 9.2% 15543 05-27-17
165 Mariobutch 9.2% 15546 05-27-17
165 superjupi 9.2% 15546 05-27-17
167 SirTobbii 9.2% 15555 05-27-17
168 sonamyfan666 8.9% 15596 05-27-17
169 SonicKnuckles 8.7% 15625 05-27-17
170 iarebored 8.7% 15627 05-27-17
171 Powerjohn25 8.7% 15635 05-27-17
172 SaviourDC 8.6% 15647 05-27-17
173 adf 8.4% 15689 05-27-17
174 Werey 8.3% 15704 05-27-17
175 Megaman EXE565 8.2% 15724 05-27-17
176 timpkmn89 7.7% 15810 05-27-17
177 Platformer 7.7% 15811 05-27-17
178 ArcticDragon 7.6% 15829 05-27-17
179 wheatrich 7.5% 15836 05-27-17
180 Swift Hobo 7.4% 15860 05-27-17
181 FocusSight64 7.4% 15863 05-27-17
182 KitsuneYamaro 7.2% 15889 05-27-17
183 Rickyman48 7.1% 15899 05-27-17
184 Triseena 7.0% 15923 05-27-17
185 dShadow 6.7% 15976 05-27-17
186 Destroyer121121 6.6% 15989 05-27-17
187 slade23 6.6% 16000 05-27-17
188 CyberShadow 6.5% 16002 05-27-17
189 Starlight Sable 6.5% 16009 05-27-17
190 IsisDazs 6.4% 16033 05-27-17
191 BlankTH 6.2% 16058 05-27-17
192 Monkeh 6.2% 16065 05-27-17
193 SonicU260 6.0% 16092 05-27-17
194 Badlex727 5.9% 16108 05-27-17
194 Redd 5.9% 16108 05-27-17
196 Richied 5.9% 16110 05-27-17
197 DaDude 5.8% 16136 05-27-17
198 Swinkly 5.7% 16150 05-27-17
198 Zip 5.7% 16150 05-27-17
200 Vicklaw 5.6% 16160 05-27-17
201 sonicd5 5.6% 16164 05-27-17
202 ALundstrom10 5.3% 16214 05-27-17
203 tal39h 5.2% 16226 05-27-17
204 VeritasDL 5.1% 16242 05-27-17
205 Kirbymon30 5.1% 16252 05-27-17
206 soniccoloursunleashed 5.1% 16258 05-27-17
207 Drflash55 5.0% 16268 05-27-17
208 Bass 5.0% 16269 05-27-17
209 neaolas 4.8% 16301 05-27-17
210 superiorsonic 4.8% 16305 05-27-17
211 zapp 4.7% 16313 05-27-17
212 Yish 4.7% 16320 05-27-17
213 UninspiredUsername 4.6% 16332 05-27-17
214 Sonicsuperstar1 4.6% 16340 05-27-17
215 gamefreak1292 4.5% 16351 05-27-17
216 Chaos_Overlord 4.2% 16398 05-27-17
217 TakaRikka 4.1% 16423 05-27-17
218 Valfore 4.0% 16431 05-27-17
219 ShinigamiMachine 3.8% 16468 05-27-17
220 Regano1000 3.8% 16471 05-27-17
221 MK 3.7% 16487 05-27-17
222 Ace747 3.6% 16501 05-27-17
223 Illidan 3.2% 16580 05-27-17
224 HHNNBBHHN 3.2% 16581 05-27-17
225 Sithwarrior26 3.1% 16588 05-27-17
226 Venick409 3.1% 16589 05-27-17
227 Brian_pso 3.1% 16590 05-27-17
228 nman36 3.1% 16591 05-27-17
229 Egor305 3.0% 16605 05-27-17
229 SkyBon 3.0% 16605 05-27-17
231 TheChaosEmeraIds 3.0% 16616 05-27-17
232 ingx24 3.0% 16618 05-27-17
233 dekki1234 2.9% 16619 05-27-17
234 Nickson98 2.9% 16625 05-27-17
235 Fozer 2.9% 16633 05-27-17
236 Colomb_30 2.8% 16636 05-27-17
237 FSSRandomvids 2.8% 16647 05-27-17
238 Aiko 2.7% 16655 05-27-17
239 sonic29887 2.7% 16664 05-27-17
240 TheUltraBlur 2.6% 16670 05-27-17
241 1stKirbyever 2.6% 16674 05-27-17
242 TimTH 2.5% 16691 05-27-17
243 Th4tN1nj4Turtl3 2.4% 16710 05-27-17
244 Cort_pso 2.3% 16722 05-27-17
244 ieatatsonic 2.3% 16722 05-27-17
246 Mariosonic15 2.3% 16729 05-27-17
247 Doom-9 2.3% 16736 05-27-17
248 Artie 2.2% 16743 05-27-17
249 HermitHelmet 2.2% 16755 05-27-17
249 MStitomix 2.2% 16755 05-27-17
251 Got4n 2.1% 16772 05-27-17
252 SuperSonic71087 2.0% 16775 05-27-17
253 Jose_15 2.0% 16784 05-27-17
254 Questionguy555 1.9% 16796 05-27-17
255 djmat 1.9% 16805 05-27-17
256 SuperSonicfan9595 1.9% 16806 05-27-17
257 Heroes_Hater 1.8% 16823 05-27-17
258 sonicandamy Player Banned 1.7% 16830 05-27-17
259 LancexExWx 1.7% 16835 05-27-17
259 Paixii 1.7% 16835 05-27-17
261 son1cgu1tar 1.7% 16839 05-27-17
262 Mankster101 1.6% 16849 05-27-17
263 BallzeH 1.6% 16851 05-27-17
264 BecauseWarAnvil 1.6% 16853 05-27-17
265 Jamixesa 1.5% 16861 05-27-17
266 SpiritDragon1995 1.5% 16871 05-27-17
267 Crydio 1.5% 16875 05-27-17
268 Shanekilz 1.4% 16876 05-27-17
269 MarewBFN 1.4% 16889 05-27-17
270 stanski 1.3% 16894 05-27-17
271 Sonique Hedgehog 1.3% 16897 05-27-17
272 p0ker 1.3% 16907 05-27-17
273 Blue Infamy 1.2% 16910 05-27-17
274 ErrortheCucco 1.2% 16921 05-27-17
275 Rikum22 1.2% 16924 05-27-17
276 Arthas 1.2% 16926 05-27-17
277 sonic1001 1.1% 16932 05-27-17
278 WingedInsignia 1.1% 16937 05-27-17
279 AJSIV 1.1% 16938 05-27-17
280 syco1098 1.1% 16939 05-27-17
281 Sonic the Hedgehod16 1.1% 16942 05-27-17
282 ASINISTERTACO 1.0% 16950 05-27-17
283 Calfd 1.0% 16953 05-27-17
284 sonicfan9 1.0% 16954 05-27-17
285 BlackArmsShadow 0.9% 16963 05-27-17
286 themachoman202 0.9% 16964 05-27-17
287 darkstarblaze 0.9% 16966 05-27-17
288 shadowblast63 Player Banned 0.9% 16970 05-27-17
289 Greham Adelphis 0.9% 16973 05-27-17
290 Fivavoa 0.9% 16974 05-27-17
291 MastaToken 0.9% 16975 05-27-17
291 Mr. Jones 0.9% 16975 05-27-17
293 arcfx1985 0.8% 16978 05-27-17
293 Ben1502 0.8% 16978 05-27-17
295 ptorflaxendrosis 0.8% 16980 05-27-17
296 TommyeAsY 0.8% 16982 05-27-17
297 FlandreScarlet9999vr 0.8% 16986 05-27-17
297 Gvozdevik 0.8% 16986 05-27-17
299 Knuckles 0.8% 16987 05-27-17
300 Zeldocto 0.8% 16988 05-27-17
301 BeeAwwb 0.8% 16991 05-27-17
301 KaM Mark MaK 0.8% 16991 05-27-17
303 ShadouZaHejjihoggu 0.7% 16999 05-27-17
304 Sarger001 0.7% 17003 05-27-17
305 dragondragon18 0.7% 17006 05-27-17
305 Sonic62 0.7% 17006 05-27-17
307 Sonic The Star 0.7% 17007 05-27-17
308 darkersupershadic 0.7% 17008 05-27-17
309 Shadygamerfreak 0.6% 17013 05-27-17
310 BioShadow 0.6% 17014 05-27-17
310 Grady219 0.6% 17014 05-27-17
310 SonicK100 0.6% 17014 05-27-17
313 Sogeking 0.6% 17016 05-27-17
314 Jawaah 0.6% 17021 05-27-17
315 Antek 0.6% 17023 05-27-17
316 Klaus 0.6% 17025 05-27-17
317 SilverK 0.6% 17026 05-27-17
318 SpinDashMaster 0.5% 17035 05-27-17
318 Videogamer123 0.5% 17035 05-27-17
320 isaihtb11 0.4% 17051 05-27-17
320 oTaiIilLsS 0.4% 17051 05-27-17
322 zaktu40 0.4% 17053 05-27-17
323 OhNoes! 0.4% 17054 05-27-17
324 gaara1234 0.4% 17057 05-27-17
325 gamed00d 0.4% 17058 05-27-17
325 S-MS32X-S 0.4% 17058 05-27-17
327 Mad Andy 0.4% 17059 05-27-17
328 Mister_Slick 0.3% 17070 05-27-17
329 Rush Hero 0.3% 17073 05-27-17
329 Sonic06Fan 0.3% 17073 05-27-17
331 SonicMega167 0.3% 17078 05-27-17
332 Iwannabelink 0.2% 17081 05-27-17
333 sonknuck23 0.2% 17083 05-27-17
334 DanielTheFalcon 0.2% 17094 05-27-17
335 gamer1245 0.2% 17095 05-27-17
336 Burningskull123 0.2% 17097 05-27-17
337 Sonicontherun 0.1% 17109 05-27-17
338 antiwwe 0.1% 17114 05-27-17
338 Lil_Dude 0.1% 17114 05-27-17
340 Tyrouble 0.0% 17116 05-27-17
341 Genuine Hedgehog 0.0% 17117 05-27-17
341 SonataSpinDash 0.0% 17117 05-27-17
343 Cbwade15 0.0% 17122 05-27-17
344 ReuelBrony 0.0% 17129 05-27-17
345 MegabombBlade 0.0% 17132 05-27-17
345 neji_hyuuga 0.0% 17132 05-27-17
345 Over 0.0% 17132 05-27-17
345 sdj6707 Player Banned 0.0% 17132 05-27-17
345 Tran Sonic Fan Player Banned 0.0% 17132 05-27-17

This page is using the New Data Table System. [FUTURE]

Game ID: 3 | Category ID: 10
Hits: 69,719 | Hits This Month: 441 | DB Calls: 21 | Mem Usage: 5.48 MB | Time: 0.17s | Printable

The Sonic Center v3.9
Copyright 2003-2011 by The Sonic Center Team.